sensor_id;sensor_type;location;lat;lon;timestamp;pressure;altitude;pressure_sealevel;temperature;humidity
31717;BME280;18301;51.076;17.046;2023-02-15T00:02:02;101873.13;;;3.08;75.47
31717;BME280;18301;51.076;17.046;2023-02-15T00:07:04;101870.34;;;3.13;75.31
31717;BME280;18301;51.076;17.046;2023-02-15T00:12:05;101869.47;;;3.12;75.01
31717;BME280;18301;51.076;17.046;2023-02-15T00:17:06;101865.94;;;3.10;74.75
31717;BME280;18301;51.076;17.046;2023-02-15T00:22:08;101860.84;;;2.99;75.29
31717;BME280;18301;51.076;17.046;2023-02-15T00:27:10;101854.69;;;2.94;75.10
31717;BME280;18301;51.076;17.046;2023-02-15T00:32:11;101842.19;;;2.98;75.66
31717;BME280;18301;51.076;17.046;2023-02-15T00:37:13;101842.19;;;2.98;75.53
31717;BME280;18301;51.076;17.046;2023-02-15T00:42:14;101847.03;;;2.76;75.59
31717;BME280;18301;51.076;17.046;2023-02-15T00:47:16;101842.00;;;2.61;75.39
31717;BME280;18301;51.076;17.046;2023-02-15T00:52:17;101840.41;;;2.50;75.59
31717;BME280;18301;51.076;17.046;2023-02-15T00:57:19;101835.03;;;2.52;76.13
31717;BME280;18301;51.076;17.046;2023-02-15T01:02:20;101838.81;;;2.40;76.05
31717;BME280;18301;51.076;17.046;2023-02-15T01:07:22;101845.78;;;2.47;76.01
31717;BME280;18301;51.076;17.046;2023-02-15T01:12:23;101843.28;;;2.37;76.32
31717;BME280;18301;51.076;17.046;2023-02-15T01:17:25;101840.72;;;2.32;75.94
31717;BME280;18301;51.076;17.046;2023-02-15T01:22:26;101844.31;;;2.31;75.75
31717;BME280;18301;51.076;17.046;2023-02-15T01:27:28;101829.19;;;2.32;76.39
31717;BME280;18301;51.076;17.046;2023-02-15T01:32:31;101815.03;;;2.28;75.51
31717;BME280;18301;51.076;17.046;2023-02-15T01:37:34;101808.97;;;2.20;75.94
31717;BME280;18301;51.076;17.046;2023-02-15T01:42:35;101804.69;;;2.08;76.74
31717;BME280;18301;51.076;17.046;2023-02-15T01:47:54;101801.22;;;2.03;77.24
31717;BME280;18301;51.076;17.046;2023-02-15T01:53:10;101794.19;;;2.00;76.93
31717;BME280;18301;51.076;17.046;2023-02-15T01:58:14;101788.00;;;1.97;77.37
31717;BME280;18301;51.076;17.046;2023-02-15T02:03:16;101777.47;;;1.91;77.51
31717;BME280;18301;51.076;17.046;2023-02-15T02:08:18;101780.94;;;1.97;76.89
31717;BME280;18301;51.076;17.046;2023-02-15T02:13:20;101774.75;;;1.94;77.38
31717;BME280;18301;51.076;17.046;2023-02-15T02:29:23;101762.50;;;1.83;78.27
31717;BME280;18301;51.076;17.046;2023-02-15T02:34:33;101756.22;;;1.88;77.92
31717;BME280;18301;51.076;17.046;2023-02-15T02:39:51;101739.38;;;1.87;77.53
31717;BME280;18301;51.076;17.046;2023-02-15T02:45:08;101726.06;;;1.87;78.01
31717;BME280;18301;51.076;17.046;2023-02-15T02:50:16;101722.56;;;1.85;77.58
31717;BME280;18301;51.076;17.046;2023-02-15T02:55:30;101707.50;;;1.82;77.58
31717;BME280;18301;51.076;17.046;2023-02-15T03:00:36;101698.13;;;1.58;78.17
31717;BME280;18301;51.076;17.046;2023-02-15T03:05:41;101716.47;;;1.75;77.96
31717;BME280;18301;51.076;17.046;2023-02-15T03:10:45;101715.66;;;1.72;78.38
31717;BME280;18301;51.076;17.046;2023-02-15T03:15:49;101713.88;;;1.74;78.43
31717;BME280;18301;51.076;17.046;2023-02-15T03:21:11;101714.75;;;1.74;78.57
31717;BME280;18301;51.076;17.046;2023-02-15T03:26:24;101710.44;;;1.66;78.83
31717;BME280;18301;51.076;17.046;2023-02-15T03:31:28;101706.75;;;1.76;78.82
31717;BME280;18301;51.076;17.046;2023-02-15T03:36:39;101703.22;;;1.74;78.49
31717;BME280;18301;51.076;17.046;2023-02-15T03:47:15;101712.13;;;1.71;78.51
31717;BME280;18301;51.076;17.046;2023-02-15T03:52:18;101707.81;;;1.63;78.96
31717;BME280;18301;51.076;17.046;2023-02-15T03:57:25;101707.00;;;1.59;78.54
31717;BME280;18301;51.076;17.046;2023-02-15T04:02:55;101705.53;;;1.38;79.56
31717;BME280;18301;51.076;17.046;2023-02-15T04:07:59;101708.00;;;1.52;79.17
31717;BME280;18301;51.076;17.046;2023-02-15T04:13:00;101711.50;;;1.54;79.47
31717;BME280;18301;51.076;17.046;2023-02-15T04:18:03;101708.84;;;1.54;79.25
31717;BME280;18301;51.076;17.046;2023-02-15T04:23:07;101695.72;;;1.43;79.01
31717;BME280;18301;51.076;17.046;2023-02-15T04:28:27;101683.34;;;1.41;79.53
31717;BME280;18301;51.076;17.046;2023-02-15T04:33:29;101686.22;;;1.27;80.09
31717;BME280;18301;51.076;17.046;2023-02-15T04:38:31;101677.19;;;1.37;80.57
31717;BME280;18301;51.076;17.046;2023-02-15T04:43:32;101678.84;;;1.44;80.33
31717;BME280;18301;51.076;17.046;2023-02-15T04:48:33;101682.38;;;1.46;79.75
31717;BME280;18301;51.076;17.046;2023-02-15T04:53:35;101673.56;;;1.41;80.06
31717;BME280;18301;51.076;17.046;2023-02-15T04:58:38;101684.25;;;1.38;79.83
31717;BME280;18301;51.076;17.046;2023-02-15T05:03:42;101684.31;;;1.35;80.26
31717;BME280;18301;51.076;17.046;2023-02-15T05:08:43;101689.66;;;1.32;80.05
31717;BME280;18301;51.076;17.046;2023-02-15T05:13:45;101691.44;;;1.33;79.86
31717;BME280;18301;51.076;17.046;2023-02-15T05:18:46;101681.72;;;1.30;79.61
31717;BME280;18301;51.076;17.046;2023-02-15T05:23:48;101684.50;;;1.23;80.10
31717;BME280;18301;51.076;17.046;2023-02-15T05:28:49;101677.50;;;1.15;79.82
31717;BME280;18301;51.076;17.046;2023-02-15T05:33:51;101670.50;;;1.11;80.25
31717;BME280;18301;51.076;17.046;2023-02-15T05:38:52;101669.53;;;1.17;80.40
31717;BME280;18301;51.076;17.046;2023-02-15T05:43:55;101664.38;;;1.05;79.96
31717;BME280;18301;51.076;17.046;2023-02-15T05:48:57;101677.66;;;1.06;80.55
31717;BME280;18301;51.076;17.046;2023-02-15T05:53:59;101668.78;;;1.06;80.54
31717;BME280;18301;51.076;17.046;2023-02-15T05:59:00;101672.38;;;1.03;80.46
31717;BME280;18301;51.076;17.046;2023-02-15T06:04:02;101672.28;;;1.09;80.39
31717;BME280;18301;51.076;17.046;2023-02-15T06:09:03;101674.94;;;1.09;80.38
31717;BME280;18301;51.076;17.046;2023-02-15T06:14:05;101676.78;;;1.06;80.86
31717;BME280;18301;51.076;17.046;2023-02-15T06:19:07;101677.69;;;1.03;80.92
31717;BME280;18301;51.076;17.046;2023-02-15T06:24:09;101679.50;;;1.00;80.72
31717;BME280;18301;51.076;17.046;2023-02-15T06:29:10;101689.28;;;0.99;80.78
31717;BME280;18301;51.076;17.046;2023-02-15T06:34:11;101682.03;;;1.09;80.97
31717;BME280;18301;51.076;17.046;2023-02-15T06:39:13;101673.91;;;1.20;80.36
31717;BME280;18301;51.076;17.046;2023-02-15T06:44:14;101671.06;;;1.32;80.45
31717;BME280;18301;51.076;17.046;2023-02-15T06:49:16;101670.91;;;1.43;80.84
31717;BME280;18301;51.076;17.046;2023-02-15T06:54:18;101670.72;;;1.53;79.99
31717;BME280;18301;51.076;17.046;2023-02-15T06:59:19;101680.34;;;1.64;79.97
31717;BME280;18301;51.076;17.046;2023-02-15T07:04:20;101676.59;;;1.74;79.43
31717;BME280;18301;51.076;17.046;2023-02-15T07:09:22;101671.09;;;1.84;79.40
31717;BME280;18301;51.076;17.046;2023-02-15T07:14:24;101661.94;;;1.99;79.57
31717;BME280;18301;51.076;17.046;2023-02-15T07:19:28;101656.44;;;2.10;79.32
31717;BME280;18301;51.076;17.046;2023-02-15T07:24:29;101657.81;;;2.31;79.38
31717;BME280;18301;51.076;17.046;2023-02-15T07:29:31;101646.81;;;2.49;78.78
31717;BME280;18301;51.076;17.046;2023-02-15T07:34:32;101649.28;;;2.57;78.95
31717;BME280;18301;51.076;17.046;2023-02-15T07:39:34;101651.78;;;2.65;79.36
31717;BME280;18301;51.076;17.046;2023-02-15T07:44:35;101655.03;;;2.79;79.51
31717;BME280;18301;51.076;17.046;2023-02-15T07:49:36;101646.13;;;2.80;79.17
31717;BME280;18301;51.076;17.046;2023-02-15T07:54:38;101624.78;;;2.80;79.68
31717;BME280;18301;51.076;17.046;2023-02-15T07:59:40;101621.09;;;2.87;80.00
31717;BME280;18301;51.076;17.046;2023-02-15T08:04:41;101622.63;;;2.99;79.46
31717;BME280;18301;51.076;17.046;2023-02-15T08:09:42;101615.00;;;3.21;78.45
31717;BME280;18301;51.076;17.046;2023-02-15T08:14:44;101627.19;;;3.31;78.93
31717;BME280;18301;51.076;17.046;2023-02-15T08:19:45;101618.97;;;3.40;78.77
31717;BME280;18301;51.076;17.046;2023-02-15T08:24:47;101616.84;;;3.53;78.15
31717;BME280;18301;51.076;17.046;2023-02-15T08:29:49;101605.06;;;3.62;78.38
31717;BME280;18301;51.076;17.046;2023-02-15T08:34:50;101601.66;;;3.91;78.41
31717;BME280;18301;51.076;17.046;2023-02-15T08:39:52;101597.72;;;4.04;78.14
31717;BME280;18301;51.076;17.046;2023-02-15T08:44:53;101598.09;;;4.22;75.26
31717;BME280;18301;51.076;17.046;2023-02-15T08:49:55;101590.31;;;4.14;75.92
31717;BME280;18301;51.076;17.046;2023-02-15T08:54:57;101589.25;;;4.51;76.65
31717;BME280;18301;51.076;17.046;2023-02-15T08:59:58;101577.53;;;4.55;75.22
31717;BME280;18301;51.076;17.046;2023-02-15T09:05:00;101585.16;;;4.69;75.58
31717;BME280;18301;51.076;17.046;2023-02-15T09:10:01;101579.25;;;5.15;73.46
31717;BME280;18301;51.076;17.046;2023-02-15T09:15:03;101575.16;;;5.03;73.47
31717;BME280;18301;51.076;17.046;2023-02-15T09:20:05;101567.22;;;5.55;72.91
31717;BME280;18301;51.076;17.046;2023-02-15T09:25:07;101561.44;;;5.67;72.79
31717;BME280;18301;51.076;17.046;2023-02-15T09:30:08;101562.34;;;5.93;70.51
31717;BME280;18301;51.076;17.046;2023-02-15T09:35:10;101554.34;;;6.16;70.08
31717;BME280;18301;51.076;17.046;2023-02-15T09:40:14;101552.00;;;6.31;69.31
31717;BME280;18301;51.076;17.046;2023-02-15T09:51:02;101549.16;;;6.35;68.84
31717;BME280;18301;51.076;17.046;2023-02-15T10:01:44;101548.47;;;6.76;68.83
31717;BME280;18301;51.076;17.046;2023-02-15T10:27:48;101521.56;;;6.77;68.23
31717;BME280;18301;51.076;17.046;2023-02-15T10:33:02;101527.41;;;6.88;68.22
31717;BME280;18301;51.076;17.046;2023-02-15T10:38:17;101507.91;;;6.83;67.75
31717;BME280;18301;51.076;17.046;2023-02-15T10:43:49;101517.03;;;7.01;67.91
31717;BME280;18301;51.076;17.046;2023-02-15T10:49:33;101504.06;;;7.12;67.21
31717;BME280;18301;51.076;17.046;2023-02-15T10:55:06;101499.31;;;6.97;67.66
31717;BME280;18301;51.076;17.046;2023-02-15T11:05:27;101484.91;;;7.20;66.81
31717;BME280;18301;51.076;17.046;2023-02-15T11:10:39;101483.53;;;7.11;67.64
31717;BME280;18301;51.076;17.046;2023-02-15T11:15:48;101476.69;;;7.25;67.41
31717;BME280;18301;51.076;17.046;2023-02-15T11:21:01;101463.00;;;7.31;67.25
31717;BME280;18301;51.076;17.046;2023-02-15T11:26:10;101456.69;;;7.11;67.30
31717;BME280;18301;51.076;17.046;2023-02-15T11:31:18;101445.25;;;7.06;68.23
31717;BME280;18301;51.076;17.046;2023-02-15T11:36:41;101445.28;;;7.27;67.90
31717;BME280;18301;51.076;17.046;2023-02-15T11:41:47;101436.81;;;7.36;67.75
31717;BME280;18301;51.076;17.046;2023-02-15T11:46:53;101435.47;;;7.26;67.74
31717;BME280;18301;51.076;17.046;2023-02-15T11:51:55;101417.75;;;7.22;68.35
31717;BME280;18301;51.076;17.046;2023-02-15T11:57:02;101414.44;;;7.35;68.28
31717;BME280;18301;51.076;17.046;2023-02-15T12:02:20;101393.41;;;7.66;68.12
31717;BME280;18301;51.076;17.046;2023-02-15T12:07:37;101396.53;;;7.94;66.83
31717;BME280;18301;51.076;17.046;2023-02-15T12:12:41;101393.94;;;8.12;66.66
31717;BME280;18301;51.076;17.046;2023-02-15T12:17:51;101379.81;;;8.06;66.58
31717;BME280;18301;51.076;17.046;2023-02-15T12:23:02;101383.53;;;8.23;66.37
31717;BME280;18301;51.076;17.046;2023-02-15T12:28:19;101376.94;;;8.11;66.44
31717;BME280;18301;51.076;17.046;2023-02-15T12:33:34;101373.72;;;8.22;65.62
31717;BME280;18301;51.076;17.046;2023-02-15T12:38:36;101374.97;;;8.15;65.62
31717;BME280;18301;51.076;17.046;2023-02-15T12:43:38;101372.50;;;8.29;65.31
31717;BME280;18301;51.076;17.046;2023-02-15T12:48:40;101359.66;;;8.34;65.59
31717;BME280;18301;51.076;17.046;2023-02-15T12:53:41;101358.16;;;8.47;65.04
31717;BME280;18301;51.076;17.046;2023-02-15T12:58:45;101352.72;;;8.66;63.98
31717;BME280;18301;51.076;17.046;2023-02-15T13:04:01;101337.38;;;8.51;64.95
31717;BME280;18301;51.076;17.046;2023-02-15T13:09:16;101346.66;;;8.63;65.30
31717;BME280;18301;51.076;17.046;2023-02-15T13:14:31;101338.72;;;8.77;65.12
31717;BME280;18301;51.076;17.046;2023-02-15T13:19:37;101337.94;;;8.75;64.52
31717;BME280;18301;51.076;17.046;2023-02-15T13:24:46;101334.84;;;9.00;64.75
31717;BME280;18301;51.076;17.046;2023-02-15T13:29:55;101323.38;;;8.96;64.73
31717;BME280;18301;51.076;17.046;2023-02-15T13:35:00;101331.59;;;8.76;64.50
31717;BME280;18301;51.076;17.046;2023-02-15T13:40:33;101325.25;;;8.94;64.69
31717;BME280;18301;51.076;17.046;2023-02-15T13:45:47;101314.28;;;8.82;64.97
31717;BME280;18301;51.076;17.046;2023-02-15T13:56:28;101314.50;;;8.77;65.27
31717;BME280;18301;51.076;17.046;2023-02-15T14:02:02;101306.09;;;8.83;64.68
31717;BME280;18301;51.076;17.046;2023-02-15T14:07:08;101307.00;;;8.84;65.42
31717;BME280;18301;51.076;17.046;2023-02-15T14:12:41;101296.13;;;8.68;65.23
31717;BME280;18301;51.076;17.046;2023-02-15T14:28:46;101296.16;;;8.50;65.63
31717;BME280;18301;51.076;17.046;2023-02-15T14:33:55;101287.50;;;8.61;65.99
31717;BME280;18301;51.076;17.046;2023-02-15T14:39:06;101296.28;;;8.65;65.43
31717;BME280;18301;51.076;17.046;2023-02-15T14:44:45;101289.19;;;8.64;65.47
31717;BME280;18301;51.076;17.046;2023-02-15T14:49:49;101298.44;;;8.58;65.64
31717;BME280;18301;51.076;17.046;2023-02-15T14:54:54;101289.50;;;8.58;65.71
31717;BME280;18301;51.076;17.046;2023-02-15T14:59:58;101279.78;;;8.36;66.14
31717;BME280;18301;51.076;17.046;2023-02-15T15:05:06;101289.31;;;8.07;67.25
31717;BME280;18301;51.076;17.046;2023-02-15T15:25:49;101277.00;;;7.84;67.42
31717;BME280;18301;51.076;17.046;2023-02-15T15:30:53;101285.16;;;7.82;67.40
31717;BME280;18301;51.076;17.046;2023-02-15T15:36:18;101281.50;;;7.65;68.00
31717;BME280;18301;51.076;17.046;2023-02-15T15:41:43;101267.81;;;7.52;68.54
31717;BME280;18301;51.076;17.046;2023-02-15T15:52:03;101259.78;;;7.31;69.28
31717;BME280;18301;51.076;17.046;2023-02-15T16:02:28;101254.31;;;7.14;69.92
31717;BME280;18301;51.076;17.046;2023-02-15T16:07:29;101257.16;;;7.11;69.72
31717;BME280;18301;51.076;17.046;2023-02-15T16:12:33;101256.69;;;7.01;69.83
31717;BME280;18301;51.076;17.046;2023-02-15T16:17:35;101248.00;;;6.96;69.99
31717;BME280;18301;51.076;17.046;2023-02-15T16:22:38;101240.38;;;6.87;70.08
31717;BME280;18301;51.076;17.046;2023-02-15T16:27:48;101245.38;;;6.74;70.25
31717;BME280;18301;51.076;17.046;2023-02-15T16:33:16;101240.28;;;6.68;70.35
31717;BME280;18301;51.076;17.046;2023-02-15T16:38:17;101236.09;;;6.62;70.58
31717;BME280;18301;51.076;17.046;2023-02-15T16:43:24;101229.38;;;6.52;70.78
31717;BME280;18301;51.076;17.046;2023-02-15T16:48:27;101227.50;;;6.54;70.61
31717;BME280;18301;51.076;17.046;2023-02-15T16:53:29;101233.41;;;6.42;70.98
31717;BME280;18301;51.076;17.046;2023-02-15T16:58:41;101230.31;;;6.31;71.45
31717;BME280;18301;51.076;17.046;2023-02-15T17:03:48;101215.09;;;6.11;71.48
31717;BME280;18301;51.076;17.046;2023-02-15T17:08:50;101228.53;;;6.09;72.54
31717;BME280;18301;51.076;17.046;2023-02-15T17:19:23;101226.94;;;6.05;72.52
31717;BME280;18301;51.076;17.046;2023-02-15T17:24:41;101219.72;;;6.07;72.73
31717;BME280;18301;51.076;17.046;2023-02-15T17:29:46;101217.63;;;5.92;72.74
31717;BME280;18301;51.076;17.046;2023-02-15T17:39:51;101207.41;;;5.80;73.22
31717;BME280;18301;51.076;17.046;2023-02-15T17:44:53;101198.69;;;5.74;73.54
31717;BME280;18301;51.076;17.046;2023-02-15T17:49:55;101203.44;;;5.68;73.99
31717;BME280;18301;51.076;17.046;2023-02-15T17:54:56;101197.34;;;5.64;73.82
31717;BME280;18301;51.076;17.046;2023-02-15T18:00:16;101185.59;;;5.45;74.33
31717;BME280;18301;51.076;17.046;2023-02-15T18:05:36;101190.28;;;5.40;74.70
31717;BME280;18301;51.076;17.046;2023-02-15T18:10:56;101188.09;;;5.27;74.62
31717;BME280;18301;51.076;17.046;2023-02-15T18:16:25;101195.63;;;5.18;75.38
31717;BME280;18301;51.076;17.046;2023-02-15T18:21:27;101194.97;;;5.11;75.72
31717;BME280;18301;51.076;17.046;2023-02-15T18:26:29;101181.59;;;5.11;76.06
31717;BME280;18301;51.076;17.046;2023-02-15T18:31:30;101185.19;;;5.10;75.91
31717;BME280;18301;51.076;17.046;2023-02-15T18:36:39;101178.09;;;5.09;75.85
31717;BME280;18301;51.076;17.046;2023-02-15T18:41:42;101178.34;;;5.03;76.25
31717;BME280;18301;51.076;17.046;2023-02-15T18:46:44;101175.19;;;4.92;76.09
31717;BME280;18301;51.076;17.046;2023-02-15T18:51:45;101178.81;;;4.91;75.80
31717;BME280;18301;51.076;17.046;2023-02-15T18:56:52;101172.19;;;4.77;76.02
31717;BME280;18301;51.076;17.046;2023-02-15T19:01:55;101176.13;;;4.67;75.93
31717;BME280;18301;51.076;17.046;2023-02-15T19:06:57;101167.22;;;4.67;76.00
31717;BME280;18301;51.076;17.046;2023-02-15T19:11:58;101169.16;;;4.63;75.53
31717;BME280;18301;51.076;17.046;2023-02-15T19:17:00;101152.56;;;4.53;76.01
31717;BME280;18301;51.076;17.046;2023-02-15T19:22:01;101146.47;;;4.50;75.76
31717;BME280;18301;51.076;17.046;2023-02-15T19:27:05;101140.22;;;4.49;76.05
31717;BME280;18301;51.076;17.046;2023-02-15T19:32:10;101148.09;;;4.54;75.92
31717;BME280;18301;51.076;17.046;2023-02-15T19:37:23;101146.81;;;4.41;74.80
31717;BME280;18301;51.076;17.046;2023-02-15T19:42:25;101143.88;;;4.23;75.04
31717;BME280;18301;51.076;17.046;2023-02-15T19:47:27;101136.28;;;4.11;75.46
31717;BME280;18301;51.076;17.046;2023-02-15T19:52:29;101126.53;;;4.10;75.66
31717;BME280;18301;51.076;17.046;2023-02-15T19:57:30;101127.44;;;4.09;75.46
31717;BME280;18301;51.076;17.046;2023-02-15T20:02:32;101125.59;;;4.11;76.00
31717;BME280;18301;51.076;17.046;2023-02-15T20:07:33;101118.78;;;4.02;75.68
31717;BME280;18301;51.076;17.046;2023-02-15T20:12:34;101118.22;;;3.92;75.82
31717;BME280;18301;51.076;17.046;2023-02-15T20:17:36;101120.19;;;3.87;75.80
31717;BME280;18301;51.076;17.046;2023-02-15T20:22:39;101127.03;;;3.69;76.20
31717;BME280;18301;51.076;17.046;2023-02-15T20:27:41;101119.03;;;3.43;76.38
31717;BME280;18301;51.076;17.046;2023-02-15T20:32:44;101115.72;;;3.35;76.30
31717;BME280;18301;51.076;17.046;2023-02-15T20:37:48;101112.25;;;3.33;77.15
31717;BME280;18301;51.076;17.046;2023-02-15T20:42:52;101107.22;;;3.23;76.69
31717;BME280;18301;51.076;17.046;2023-02-15T20:47:54;101101.72;;;3.28;77.08
31717;BME280;18301;51.076;17.046;2023-02-15T20:52:57;101115.72;;;3.35;77.12
31717;BME280;18301;51.076;17.046;2023-02-15T20:57:59;101110.94;;;3.44;76.55
31717;BME280;18301;51.076;17.046;2023-02-15T21:03:01;101111.03;;;3.43;76.39
31717;BME280;18301;51.076;17.046;2023-02-15T21:08:13;101103.16;;;3.38;76.30
31717;BME280;18301;51.076;17.046;2023-02-15T21:13:28;101103.41;;;3.31;76.25
31717;BME280;18301;51.076;17.046;2023-02-15T21:18:32;101100.00;;;3.26;76.33
31717;BME280;18301;51.076;17.046;2023-02-15T21:23:37;101099.16;;;3.25;76.13
31717;BME280;18301;51.076;17.046;2023-02-15T21:28:39;101094.53;;;3.30;76.07
31717;BME280;18301;51.076;17.046;2023-02-15T21:33:41;101092.97;;;3.23;76.40
31717;BME280;18301;51.076;17.046;2023-02-15T21:38:45;101083.34;;;3.19;75.72
31717;BME280;18301;51.076;17.046;2023-02-15T21:43:47;101087.03;;;3.15;76.02
31717;BME280;18301;51.076;17.046;2023-02-15T21:49:07;101080.00;;;3.12;76.37
31717;BME280;18301;51.076;17.046;2023-02-15T21:54:12;101074.97;;;3.03;76.00
31717;BME280;18301;51.076;17.046;2023-02-15T21:59:16;101062.78;;;2.94;75.77
31717;BME280;18301;51.076;17.046;2023-02-15T22:04:26;101075.38;;;2.89;75.86
31717;BME280;18301;51.076;17.046;2023-02-15T22:09:29;101061.25;;;2.87;75.96
31717;BME280;18301;51.076;17.046;2023-02-15T22:14:41;101060.22;;;2.91;76.66
31717;BME280;18301;51.076;17.046;2023-02-15T22:19:45;101054.16;;;2.86;75.99
31717;BME280;18301;51.076;17.046;2023-02-15T22:24:47;101058.81;;;2.80;76.29
31717;BME280;18301;51.076;17.046;2023-02-15T22:29:48;101045.84;;;2.69;76.13
31717;BME280;18301;51.076;17.046;2023-02-15T22:34:51;101045.63;;;2.75;76.19
31717;BME280;18301;51.076;17.046;2023-02-15T22:39:53;101045.53;;;2.78;75.96
31717;BME280;18301;51.076;17.046;2023-02-15T22:44:56;101049.31;;;2.71;75.94
31717;BME280;18301;51.076;17.046;2023-02-15T22:49:58;101047.94;;;2.58;76.03
31717;BME280;18301;51.076;17.046;2023-02-15T22:54:59;101028.75;;;2.46;76.33
31717;BME280;18301;51.076;17.046;2023-02-15T23:00:01;101028.22;;;2.35;76.07
31717;BME280;18301;51.076;17.046;2023-02-15T23:05:03;101033.97;;;2.20;76.64
31717;BME280;18301;51.076;17.046;2023-02-15T23:10:05;101042.19;;;2.12;77.23
31717;BME280;18301;51.076;17.046;2023-02-15T23:15:09;101043.72;;;2.21;77.58
31717;BME280;18301;51.076;17.046;2023-02-15T23:20:14;101046.84;;;2.35;77.60
31717;BME280;18301;51.076;17.046;2023-02-15T23:25:16;101041.53;;;2.35;76.83
31717;BME280;18301;51.076;17.046;2023-02-15T23:30:19;101026.78;;;2.23;76.92
31717;BME280;18301;51.076;17.046;2023-02-15T23:35:20;101033.06;;;2.21;76.41
31717;BME280;18301;51.076;17.046;2023-02-15T23:40:22;101032.19;;;2.20;76.45
31717;BME280;18301;51.076;17.046;2023-02-15T23:45:42;101037.66;;;2.16;76.84
31717;BME280;18301;51.076;17.046;2023-02-15T23:50:43;101035.19;;;2.10;76.52
31717;BME280;18301;51.076;17.046;2023-02-15T23:55:45;101034.41;;;2.04;76.60
